sensor_id;sensor_type;location;lat;lon;timestamp;P1;durP1;ratioP1;P2;durP2;ratioP2
23866;SDS011;12114;53.404;-1.502;2022-08-01T00:02:21;6.47;;;1.40;;
23866;SDS011;12114;53.404;-1.502;2022-08-01T00:04:46;7.72;;;1.38;;
23866;SDS011;12114;53.404;-1.502;2022-08-01T00:07:12;3.70;;;1.67;;
23866;SDS011;12114;53.404;-1.502;2022-08-01T00:09:38;4.70;;;1.30;;
23866;SDS011;12114;53.404;-1.502;2022-08-01T00:12:04;6.50;;;1.20;;
23866;SDS011;12114;53.404;-1.502;2022-08-01T00:14:30;6.22;;;1.33;;
23866;SDS011;12114;53.404;-1.502;2022-08-01T00:16:55;4.25;;;1.42;;
23866;SDS011;12114;53.404;-1.502;2022-08-01T00:19:20;9.13;;;1.60;;
23866;SDS011;12114;53.404;-1.502;2022-08-01T00:21:46;8.88;;;1.45;;
23866;SDS011;12114;53.404;-1.502;2022-08-01T00:24:11;5.32;;;1.48;;
23866;SDS011;12114;53.404;-1.502;2022-08-01T00:26:36;4.38;;;1.15;;
23866;SDS011;12114;53.404;-1.502;2022-08-01T00:29:02;6.43;;;1.55;;
23866;SDS011;12114;53.404;-1.502;2022-08-01T00:31:27;4.53;;;1.13;;
23866;SDS011;12114;53.404;-1.502;2022-08-01T00:33:53;9.18;;;2.00;;
23866;SDS011;12114;53.404;-1.502;2022-08-01T00:36:18;5.63;;;1.13;;
23866;SDS011;12114;53.404;-1.502;2022-08-01T00:38:45;5.35;;;1.27;;
23866;SDS011;12114;53.404;-1.502;2022-08-01T00:41:10;4.78;;;1.15;;
23866;SDS011;12114;53.404;-1.502;2022-08-01T00:43:36;6.22;;;1.52;;
23866;SDS011;12114;53.404;-1.502;2022-08-01T00:46:01;8.23;;;1.67;;
23866;SDS011;12114;53.404;-1.502;2022-08-01T00:48:27;4.95;;;1.27;;
23866;SDS011;12114;53.404;-1.502;2022-08-01T00:50:52;4.50;;;1.23;;
23866;SDS011;12114;53.404;-1.502;2022-08-01T00:53:18;9.30;;;1.27;;
23866;SDS011;12114;53.404;-1.502;2022-08-01T00:55:44;5.85;;;1.00;;
23866;SDS011;12114;53.404;-1.502;2022-08-01T00:58:10;8.93;;;1.83;;
23866;SDS011;12114;53.404;-1.502;2022-08-01T01:00:36;4.60;;;1.63;;
23866;SDS011;12114;53.404;-1.502;2022-08-01T01:03:01;9.85;;;1.30;;
23866;SDS011;12114;53.404;-1.502;2022-08-01T01:05:27;5.50;;;1.00;;
23866;SDS011;12114;53.404;-1.502;2022-08-01T01:07:56;8.05;;;1.90;;
23866;SDS011;12114;53.404;-1.502;2022-08-01T01:10:31;10.85;;;1.52;;
23866;SDS011;12114;53.404;-1.502;2022-08-01T01:14:00;7.38;;;1.50;;
23866;SDS011;12114;53.404;-1.502;2022-08-01T01:15:57;6.50;;;1.35;;
23866;SDS011;12114;53.404;-1.502;2022-08-01T01:18:24;6.05;;;1.70;;
23866;SDS011;12114;53.404;-1.502;2022-08-01T01:23:43;6.93;;;1.52;;
23866;SDS011;12114;53.404;-1.502;2022-08-01T01:26:19;8.18;;;1.95;;
23866;SDS011;12114;53.404;-1.502;2022-08-01T01:28:58;7.05;;;1.52;;
23866;SDS011;12114;53.404;-1.502;2022-08-01T01:31:25;7.13;;;1.67;;
23866;SDS011;12114;53.404;-1.502;2022-08-01T01:33:52;5.53;;;1.85;;
23866;SDS011;12114;53.404;-1.502;2022-08-01T01:36:19;5.07;;;1.67;;
23866;SDS011;12114;53.404;-1.502;2022-08-01T01:38:46;4.55;;;1.38;;
23866;SDS011;12114;53.404;-1.502;2022-08-01T01:41:12;5.80;;;1.48;;
23866;SDS011;12114;53.404;-1.502;2022-08-01T01:43:39;6.13;;;1.40;;
23866;SDS011;12114;53.404;-1.502;2022-08-01T01:46:05;6.47;;;1.27;;
23866;SDS011;12114;53.404;-1.502;2022-08-01T01:48:31;7.00;;;1.20;;
23866;SDS011;12114;53.404;-1.502;2022-08-01T01:50:57;4.88;;;1.23;;
23866;SDS011;12114;53.404;-1.502;2022-08-01T01:53:23;9.68;;;1.65;;
23866;SDS011;12114;53.404;-1.502;2022-08-01T01:55:51;7.75;;;1.58;;
23866;SDS011;12114;53.404;-1.502;2022-08-01T01:58:17;4.13;;;1.25;;
23866;SDS011;12114;53.404;-1.502;2022-08-01T02:00:44;7.18;;;1.88;;
23866;SDS011;12114;53.404;-1.502;2022-08-01T02:03:11;7.60;;;1.50;;
23866;SDS011;12114;53.404;-1.502;2022-08-01T02:05:37;6.45;;;1.58;;
23866;SDS011;12114;53.404;-1.502;2022-08-01T02:08:03;4.15;;;0.95;;
23866;SDS011;12114;53.404;-1.502;2022-08-01T02:10:29;5.53;;;1.20;;
23866;SDS011;12114;53.404;-1.502;2022-08-01T02:12:57;7.80;;;1.60;;
23866;SDS011;12114;53.404;-1.502;2022-08-01T02:15:22;8.57;;;1.30;;
23866;SDS011;12114;53.404;-1.502;2022-08-01T02:17:49;3.65;;;1.52;;
23866;SDS011;12114;53.404;-1.502;2022-08-01T02:20:14;9.13;;;1.40;;
23866;SDS011;12114;53.404;-1.502;2022-08-01T02:23:01;4.95;;;1.13;;
23866;SDS011;12114;53.404;-1.502;2022-08-01T02:25:31;6.18;;;1.40;;
23866;SDS011;12114;53.404;-1.502;2022-08-01T02:27:59;5.13;;;1.13;;
23866;SDS011;12114;53.404;-1.502;2022-08-01T02:30:26;6.85;;;1.60;;
23866;SDS011;12114;53.404;-1.502;2022-08-01T02:33:00;4.82;;;1.25;;
23866;SDS011;12114;53.404;-1.502;2022-08-01T02:35:27;8.93;;;1.13;;
23866;SDS011;12114;53.404;-1.502;2022-08-01T02:37:53;7.88;;;1.45;;
23866;SDS011;12114;53.404;-1.502;2022-08-01T02:40:20;6.20;;;1.48;;
23866;SDS011;12114;53.404;-1.502;2022-08-01T02:42:47;4.63;;;1.20;;
23866;SDS011;12114;53.404;-1.502;2022-08-01T02:45:14;3.95;;;1.02;;
23866;SDS011;12114;53.404;-1.502;2022-08-01T02:47:42;8.00;;;1.67;;
23866;SDS011;12114;53.404;-1.502;2022-08-01T02:50:09;4.10;;;1.35;;
23866;SDS011;12114;53.404;-1.502;2022-08-01T02:52:36;4.05;;;1.33;;
23866;SDS011;12114;53.404;-1.502;2022-08-01T02:55:02;6.28;;;1.70;;
23866;SDS011;12114;53.404;-1.502;2022-08-01T02:57:29;10.50;;;1.70;;
23866;SDS011;12114;53.404;-1.502;2022-08-01T02:59:55;6.15;;;1.55;;
23866;SDS011;12114;53.404;-1.502;2022-08-01T03:02:22;9.35;;;1.73;;
23866;SDS011;12114;53.404;-1.502;2022-08-01T03:04:48;3.80;;;1.35;;
23866;SDS011;12114;53.404;-1.502;2022-08-01T03:07:14;5.72;;;1.30;;
23866;SDS011;12114;53.404;-1.502;2022-08-01T03:09:40;7.68;;;1.40;;
23866;SDS011;12114;53.404;-1.502;2022-08-01T03:12:11;3.65;;;1.30;;
23866;SDS011;12114;53.404;-1.502;2022-08-01T03:14:39;6.25;;;1.42;;
23866;SDS011;12114;53.404;-1.502;2022-08-01T03:17:05;9.07;;;1.30;;
23866;SDS011;12114;53.404;-1.502;2022-08-01T03:19:31;5.10;;;1.33;;
23866;SDS011;12114;53.404;-1.502;2022-08-01T03:21:58;9.50;;;1.40;;
23866;SDS011;12114;53.404;-1.502;2022-08-01T03:24:25;6.07;;;1.98;;
23866;SDS011;12114;53.404;-1.502;2022-08-01T03:26:51;3.90;;;1.10;;
23866;SDS011;12114;53.404;-1.502;2022-08-01T03:29:19;4.75;;;1.35;;
23866;SDS011;12114;53.404;-1.502;2022-08-01T03:31:45;7.90;;;1.40;;
23866;SDS011;12114;53.404;-1.502;2022-08-01T03:34:11;7.18;;;1.40;;
23866;SDS011;12114;53.404;-1.502;2022-08-01T03:36:39;5.90;;;1.63;;
23866;SDS011;12114;53.404;-1.502;2022-08-01T03:39:07;8.60;;;1.50;;
23866;SDS011;12114;53.404;-1.502;2022-08-01T03:41:37;6.95;;;1.58;;
23866;SDS011;12114;53.404;-1.502;2022-08-01T03:44:05;5.97;;;1.55;;
23866;SDS011;12114;53.404;-1.502;2022-08-01T03:46:47;7.80;;;1.67;;
23866;SDS011;12114;53.404;-1.502;2022-08-01T03:49:23;2.80;;;1.15;;
23866;SDS011;12114;53.404;-1.502;2022-08-01T03:51:50;7.25;;;1.50;;
23866;SDS011;12114;53.404;-1.502;2022-08-01T03:54:17;5.78;;;1.38;;
23866;SDS011;12114;53.404;-1.502;2022-08-01T03:56:45;6.18;;;1.52;;
23866;SDS011;12114;53.404;-1.502;2022-08-01T03:59:12;9.23;;;1.35;;
23866;SDS011;12114;53.404;-1.502;2022-08-01T04:01:39;6.63;;;1.65;;
23866;SDS011;12114;53.404;-1.502;2022-08-01T04:04:04;7.03;;;1.42;;
23866;SDS011;12114;53.404;-1.502;2022-08-01T04:06:33;8.27;;;1.60;;
23866;SDS011;12114;53.404;-1.502;2022-08-01T04:09:02;11.93;;;1.40;;
23866;SDS011;12114;53.404;-1.502;2022-08-01T04:11:27;11.48;;;2.38;;
23866;SDS011;12114;53.404;-1.502;2022-08-01T04:13:54;9.43;;;1.92;;
23866;SDS011;12114;53.404;-1.502;2022-08-01T04:16:19;16.05;;;2.20;;
23866;SDS011;12114;53.404;-1.502;2022-08-01T04:18:45;6.22;;;1.30;;
23866;SDS011;12114;53.404;-1.502;2022-08-01T04:21:11;13.25;;;2.03;;
23866;SDS011;12114;53.404;-1.502;2022-08-01T04:23:36;8.27;;;2.33;;
23866;SDS011;12114;53.404;-1.502;2022-08-01T04:26:03;7.40;;;1.98;;
23866;SDS011;12114;53.404;-1.502;2022-08-01T04:28:30;8.25;;;2.00;;
23866;SDS011;12114;53.404;-1.502;2022-08-01T04:30:56;8.55;;;1.80;;
23866;SDS011;12114;53.404;-1.502;2022-08-01T04:33:22;9.55;;;1.98;;
23866;SDS011;12114;53.404;-1.502;2022-08-01T04:35:48;15.65;;;2.17;;
23866;SDS011;12114;53.404;-1.502;2022-08-01T04:38:15;10.23;;;2.53;;
23866;SDS011;12114;53.404;-1.502;2022-08-01T04:40:42;9.13;;;2.13;;
23866;SDS011;12114;53.404;-1.502;2022-08-01T04:43:09;8.63;;;2.00;;
23866;SDS011;12114;53.404;-1.502;2022-08-01T04:45:35;8.57;;;2.00;;
23866;SDS011;12114;53.404;-1.502;2022-08-01T04:48:01;5.47;;;1.67;;
23866;SDS011;12114;53.404;-1.502;2022-08-01T04:50:27;8.88;;;2.10;;
23866;SDS011;12114;53.404;-1.502;2022-08-01T04:52:53;7.53;;;2.30;;
23866;SDS011;12114;53.404;-1.502;2022-08-01T04:55:18;6.45;;;1.88;;
23866;SDS011;12114;53.404;-1.502;2022-08-01T04:57:44;7.38;;;1.90;;
23866;SDS011;12114;53.404;-1.502;2022-08-01T05:00:11;8.10;;;2.20;;
23866;SDS011;12114;53.404;-1.502;2022-08-01T05:02:39;11.20;;;2.00;;
23866;SDS011;12114;53.404;-1.502;2022-08-01T05:05:04;7.70;;;2.13;;
23866;SDS011;12114;53.404;-1.502;2022-08-01T05:07:33;4.47;;;1.60;;
23866;SDS011;12114;53.404;-1.502;2022-08-01T05:10:04;10.50;;;2.40;;
23866;SDS011;12114;53.404;-1.502;2022-08-01T05:12:30;9.02;;;1.92;;
23866;SDS011;12114;53.404;-1.502;2022-08-01T05:14:58;10.07;;;2.25;;
23866;SDS011;12114;53.404;-1.502;2022-08-01T05:17:25;11.48;;;1.95;;
23866;SDS011;12114;53.404;-1.502;2022-08-01T05:19:51;8.30;;;2.00;;
23866;SDS011;12114;53.404;-1.502;2022-08-01T05:22:16;5.88;;;1.63;;
23866;SDS011;12114;53.404;-1.502;2022-08-01T05:24:42;11.10;;;2.13;;
23866;SDS011;12114;53.404;-1.502;2022-08-01T05:27:07;10.65;;;2.22;;
23866;SDS011;12114;53.404;-1.502;2022-08-01T05:29:33;7.72;;;1.92;;
23866;SDS011;12114;53.404;-1.502;2022-08-01T05:31:59;12.38;;;2.22;;
23866;SDS011;12114;53.404;-1.502;2022-08-01T05:34:25;9.05;;;2.30;;
23866;SDS011;12114;53.404;-1.502;2022-08-01T05:36:50;9.73;;;2.20;;
23866;SDS011;12114;53.404;-1.502;2022-08-01T05:39:15;7.63;;;1.67;;
23866;SDS011;12114;53.404;-1.502;2022-08-01T05:41:41;7.90;;;1.83;;
23866;SDS011;12114;53.404;-1.502;2022-08-01T05:44:07;7.50;;;1.88;;
23866;SDS011;12114;53.404;-1.502;2022-08-01T05:46:32;7.95;;;2.05;;
23866;SDS011;12114;53.404;-1.502;2022-08-01T05:48:59;9.10;;;1.83;;
23866;SDS011;12114;53.404;-1.502;2022-08-01T05:51:24;8.57;;;1.73;;
23866;SDS011;12114;53.404;-1.502;2022-08-01T05:53:50;8.52;;;1.83;;
23866;SDS011;12114;53.404;-1.502;2022-08-01T05:56:15;6.47;;;1.40;;
23866;SDS011;12114;53.404;-1.502;2022-08-01T05:58:41;9.40;;;2.00;;
23866;SDS011;12114;53.404;-1.502;2022-08-01T06:01:07;6.22;;;1.75;;
23866;SDS011;12114;53.404;-1.502;2022-08-01T06:03:32;5.88;;;1.70;;
23866;SDS011;12114;53.404;-1.502;2022-08-01T06:05:59;7.13;;;1.63;;
23866;SDS011;12114;53.404;-1.502;2022-08-01T06:08:25;10.18;;;2.05;;
23866;SDS011;12114;53.404;-1.502;2022-08-01T06:10:50;8.25;;;1.70;;
23866;SDS011;12114;53.404;-1.502;2022-08-01T06:13:16;9.00;;;1.80;;
23866;SDS011;12114;53.404;-1.502;2022-08-01T06:15:42;9.75;;;1.70;;
23866;SDS011;12114;53.404;-1.502;2022-08-01T06:18:07;6.53;;;1.38;;
23866;SDS011;12114;53.404;-1.502;2022-08-01T06:20:33;9.70;;;1.80;;
23866;SDS011;12114;53.404;-1.502;2022-08-01T06:22:58;8.80;;;1.83;;
23866;SDS011;12114;53.404;-1.502;2022-08-01T06:25:24;6.88;;;0.98;;
23866;SDS011;12114;53.404;-1.502;2022-08-01T06:27:49;7.85;;;1.30;;
23866;SDS011;12114;53.404;-1.502;2022-08-01T06:30:15;4.45;;;1.10;;
23866;SDS011;12114;53.404;-1.502;2022-08-01T06:32:40;7.18;;;1.42;;
23866;SDS011;12114;53.404;-1.502;2022-08-01T06:35:06;5.43;;;1.05;;
23866;SDS011;12114;53.404;-1.502;2022-08-01T06:37:32;6.63;;;0.95;;
23866;SDS011;12114;53.404;-1.502;2022-08-01T06:40:01;6.95;;;1.05;;
23866;SDS011;12114;53.404;-1.502;2022-08-01T06:42:27;9.60;;;1.30;;
23866;SDS011;12114;53.404;-1.502;2022-08-01T06:44:53;5.82;;;1.23;;
23866;SDS011;12114;53.404;-1.502;2022-08-01T06:47:18;7.80;;;1.23;;
23866;SDS011;12114;53.404;-1.502;2022-08-01T06:49:43;7.68;;;1.30;;
23866;SDS011;12114;53.404;-1.502;2022-08-01T06:52:09;7.80;;;1.50;;
23866;SDS011;12114;53.404;-1.502;2022-08-01T06:54:34;7.00;;;1.30;;
23866;SDS011;12114;53.404;-1.502;2022-08-01T06:56:59;3.20;;;0.82;;
23866;SDS011;12114;53.404;-1.502;2022-08-01T06:59:25;4.10;;;1.20;;
23866;SDS011;12114;53.404;-1.502;2022-08-01T07:01:51;7.50;;;1.70;;
23866;SDS011;12114;53.404;-1.502;2022-08-01T07:04:16;7.97;;;1.48;;
23866;SDS011;12114;53.404;-1.502;2022-08-01T07:06:41;7.03;;;1.52;;
23866;SDS011;12114;53.404;-1.502;2022-08-01T07:09:07;7.45;;;1.73;;
23866;SDS011;12114;53.404;-1.502;2022-08-01T07:11:32;6.00;;;1.13;;
23866;SDS011;12114;53.404;-1.502;2022-08-01T07:13:57;8.18;;;1.30;;
23866;SDS011;12114;53.404;-1.502;2022-08-01T07:16:24;3.13;;;1.20;;
23866;SDS011;12114;53.404;-1.502;2022-08-01T07:18:49;4.28;;;1.20;;
23866;SDS011;12114;53.404;-1.502;2022-08-01T07:21:14;5.15;;;1.35;;
23866;SDS011;12114;53.404;-1.502;2022-08-01T07:23:40;6.78;;;1.42;;
23866;SDS011;12114;53.404;-1.502;2022-08-01T07:26:05;6.50;;;1.58;;
23866;SDS011;12114;53.404;-1.502;2022-08-01T07:28:32;6.60;;;1.65;;
23866;SDS011;12114;53.404;-1.502;2022-08-01T07:30:57;5.03;;;1.10;;
23866;SDS011;12114;53.404;-1.502;2022-08-01T07:33:22;5.40;;;1.00;;
23866;SDS011;12114;53.404;-1.502;2022-08-01T07:35:48;3.92;;;0.90;;
23866;SDS011;12114;53.404;-1.502;2022-08-01T07:38:13;6.00;;;1.02;;
23866;SDS011;12114;53.404;-1.502;2022-08-01T07:40:42;4.75;;;1.15;;
23866;SDS011;12114;53.404;-1.502;2022-08-01T07:43:07;7.63;;;1.00;;
23866;SDS011;12114;53.404;-1.502;2022-08-01T07:45:33;9.05;;;1.30;;
23866;SDS011;12114;53.404;-1.502;2022-08-01T07:48:05;6.85;;;1.33;;
23866;SDS011;12114;53.404;-1.502;2022-08-01T07:50:30;2.78;;;0.90;;
23866;SDS011;12114;53.404;-1.502;2022-08-01T07:52:56;7.07;;;1.08;;
23866;SDS011;12114;53.404;-1.502;2022-08-01T07:55:22;4.75;;;0.93;;
23866;SDS011;12114;53.404;-1.502;2022-08-01T07:57:47;6.85;;;1.02;;
23866;SDS011;12114;53.404;-1.502;2022-08-01T08:00:14;5.07;;;1.05;;
23866;SDS011;12114;53.404;-1.502;2022-08-01T08:02:39;3.20;;;0.73;;
23866;SDS011;12114;53.404;-1.502;2022-08-01T08:05:05;3.60;;;0.80;;
23866;SDS011;12114;53.404;-1.502;2022-08-01T08:07:33;6.13;;;1.33;;
23866;SDS011;12114;53.404;-1.502;2022-08-01T08:09:58;5.20;;;1.30;;
23866;SDS011;12114;53.404;-1.502;2022-08-01T08:12:24;4.40;;;1.00;;
23866;SDS011;12114;53.404;-1.502;2022-08-01T08:14:49;5.32;;;0.90;;
23866;SDS011;12114;53.404;-1.502;2022-08-01T08:17:15;4.30;;;0.70;;
23866;SDS011;12114;53.404;-1.502;2022-08-01T08:19:40;4.28;;;0.95;;
23866;SDS011;12114;53.404;-1.502;2022-08-01T08:22:06;4.05;;;0.82;;
23866;SDS011;12114;53.404;-1.502;2022-08-01T08:24:32;3.53;;;0.80;;
23866;SDS011;12114;53.404;-1.502;2022-08-01T08:26:58;2.65;;;0.60;;
23866;SDS011;12114;53.404;-1.502;2022-08-01T08:29:24;3.42;;;0.82;;
23866;SDS011;12114;53.404;-1.502;2022-08-01T08:31:51;3.60;;;0.80;;
23866;SDS011;12114;53.404;-1.502;2022-08-01T08:34:16;3.28;;;0.80;;
23866;SDS011;12114;53.404;-1.502;2022-08-01T08:36:42;3.58;;;0.95;;
23866;SDS011;12114;53.404;-1.502;2022-08-01T08:39:07;8.00;;;0.75;;
23866;SDS011;12114;53.404;-1.502;2022-08-01T08:41:33;10.68;;;0.88;;
23866;SDS011;12114;53.404;-1.502;2022-08-01T08:44:00;3.55;;;0.90;;
23866;SDS011;12114;53.404;-1.502;2022-08-01T08:46:25;2.13;;;0.60;;
23866;SDS011;12114;53.404;-1.502;2022-08-01T08:48:51;7.18;;;0.95;;
23866;SDS011;12114;53.404;-1.502;2022-08-01T08:51:17;3.22;;;0.80;;
23866;SDS011;12114;53.404;-1.502;2022-08-01T08:53:42;5.10;;;0.93;;
23866;SDS011;12114;53.404;-1.502;2022-08-01T08:56:10;3.50;;;0.55;;
23866;SDS011;12114;53.404;-1.502;2022-08-01T08:58:36;3.95;;;0.80;;
23866;SDS011;12114;53.404;-1.502;2022-08-01T09:01:06;3.47;;;0.60;;
23866;SDS011;12114;53.404;-1.502;2022-08-01T09:03:33;3.17;;;0.73;;
23866;SDS011;12114;53.404;-1.502;2022-08-01T09:05:59;3.75;;;0.60;;
23866;SDS011;12114;53.404;-1.502;2022-08-01T09:08:24;7.38;;;0.85;;
23866;SDS011;12114;53.404;-1.502;2022-08-01T09:10:50;2.75;;;0.70;;
23866;SDS011;12114;53.404;-1.502;2022-08-01T09:13:15;4.00;;;0.65;;
23866;SDS011;12114;53.404;-1.502;2022-08-01T09:15:44;3.03;;;0.80;;
23866;SDS011;12114;53.404;-1.502;2022-08-01T09:23:38;6.72;;;0.90;;
23866;SDS011;12114;53.404;-1.502;2022-08-01T09:26:11;2.40;;;0.65;;
23866;SDS011;12114;53.404;-1.502;2022-08-01T09:28:37;3.53;;;0.80;;
23866;SDS011;12114;53.404;-1.502;2022-08-01T09:31:06;4.20;;;0.77;;
23866;SDS011;12114;53.404;-1.502;2022-08-01T09:36:13;2.35;;;0.60;;
23866;SDS011;12114;53.404;-1.502;2022-08-01T09:38:38;1.98;;;0.60;;
23866;SDS011;12114;53.404;-1.502;2022-08-01T09:41:04;2.67;;;0.80;;
23866;SDS011;12114;53.404;-1.502;2022-08-01T09:43:30;2.95;;;0.68;;
23866;SDS011;12114;53.404;-1.502;2022-08-01T09:45:55;3.65;;;0.77;;
23866;SDS011;12114;53.404;-1.502;2022-08-01T09:48:21;3.33;;;0.75;;
23866;SDS011;12114;53.404;-1.502;2022-08-01T09:50:48;1.80;;;0.68;;
23866;SDS011;12114;53.404;-1.502;2022-08-01T09:53:13;3.70;;;0.77;;
23866;SDS011;12114;53.404;-1.502;2022-08-01T09:55:40;1.85;;;0.60;;
23866;SDS011;12114;53.404;-1.502;2022-08-01T09:58:06;1.88;;;0.50;;
23866;SDS011;12114;53.404;-1.502;2022-08-01T10:00:32;2.38;;;0.50;;
23866;SDS011;12114;53.404;-1.502;2022-08-01T10:02:58;1.20;;;0.40;;
23866;SDS011;12114;53.404;-1.502;2022-08-01T10:05:34;4.05;;;0.60;;
23866;SDS011;12114;53.404;-1.502;2022-08-01T10:08:00;1.98;;;0.52;;
23866;SDS011;12114;53.404;-1.502;2022-08-01T10:10:26;3.35;;;0.70;;
23866;SDS011;12114;53.404;-1.502;2022-08-01T10:12:52;3.03;;;0.85;;
23866;SDS011;12114;53.404;-1.502;2022-08-01T10:15:20;2.85;;;0.60;;
23866;SDS011;12114;53.404;-1.502;2022-08-01T10:20:18;3.47;;;0.95;;
23866;SDS011;12114;53.404;-1.502;2022-08-01T10:22:44;2.35;;;0.50;;
23866;SDS011;12114;53.404;-1.502;2022-08-01T10:25:11;3.88;;;0.70;;
23866;SDS011;12114;53.404;-1.502;2022-08-01T10:27:38;2.20;;;0.70;;
23866;SDS011;12114;53.404;-1.502;2022-08-01T10:30:04;4.38;;;0.70;;
23866;SDS011;12114;53.404;-1.502;2022-08-01T10:32:31;1.48;;;0.50;;
23866;SDS011;12114;53.404;-1.502;2022-08-01T10:34:58;4.53;;;0.80;;
23866;SDS011;12114;53.404;-1.502;2022-08-01T10:37:24;2.42;;;0.77;;
23866;SDS011;12114;53.404;-1.502;2022-08-01T10:39:53;1.70;;;0.63;;
23866;SDS011;12114;53.404;-1.502;2022-08-01T10:42:19;3.50;;;0.70;;
23866;SDS011;12114;53.404;-1.502;2022-08-01T10:44:44;4.68;;;1.00;;
23866;SDS011;12114;53.404;-1.502;2022-08-01T10:47:15;3.50;;;0.95;;
23866;SDS011;12114;53.404;-1.502;2022-08-01T10:49:54;7.78;;;1.02;;
23866;SDS011;12114;53.404;-1.502;2022-08-01T10:52:21;3.05;;;0.90;;
23866;SDS011;12114;53.404;-1.502;2022-08-01T10:54:47;3.72;;;0.90;;
23866;SDS011;12114;53.404;-1.502;2022-08-01T10:57:13;3.75;;;1.05;;
23866;SDS011;12114;53.404;-1.502;2022-08-01T10:59:49;2.15;;;0.70;;
23866;SDS011;12114;53.404;-1.502;2022-08-01T11:07:06;4.97;;;1.00;;
23866;SDS011;12114;53.404;-1.502;2022-08-01T11:09:45;3.60;;;1.00;;
23866;SDS011;12114;53.404;-1.502;2022-08-01T11:12:11;4.35;;;0.93;;
23866;SDS011;12114;53.404;-1.502;2022-08-01T11:17:31;3.05;;;0.70;;
23866;SDS011;12114;53.404;-1.502;2022-08-01T11:22:30;1.92;;;0.70;;
23866;SDS011;12114;53.404;-1.502;2022-08-01T11:24:55;3.63;;;0.93;;
23866;SDS011;12114;53.404;-1.502;2022-08-01T11:27:22;3.50;;;0.77;;
23866;SDS011;12114;53.404;-1.502;2022-08-01T11:32:32;3.92;;;1.00;;
23866;SDS011;12114;53.404;-1.502;2022-08-01T11:34:58;4.15;;;0.90;;
23866;SDS011;12114;53.404;-1.502;2022-08-01T11:37:23;5.22;;;0.80;;
23866;SDS011;12114;53.404;-1.502;2022-08-01T11:42:33;3.55;;;0.80;;
23866;SDS011;12114;53.404;-1.502;2022-08-01T11:44:59;3.63;;;0.95;;
23866;SDS011;12114;53.404;-1.502;2022-08-01T11:50:29;2.92;;;0.90;;
23866;SDS011;12114;53.404;-1.502;2022-08-01T11:53:01;3.50;;;1.00;;
23866;SDS011;12114;53.404;-1.502;2022-08-01T11:55:27;4.50;;;0.80;;
23866;SDS011;12114;53.404;-1.502;2022-08-01T11:57:59;4.18;;;0.63;;
23866;SDS011;12114;53.404;-1.502;2022-08-01T12:00:25;2.22;;;0.60;;
23866;SDS011;12114;53.404;-1.502;2022-08-01T12:03:01;2.20;;;0.70;;
23866;SDS011;12114;53.404;-1.502;2022-08-01T12:05:28;3.15;;;0.75;;
23866;SDS011;12114;53.404;-1.502;2022-08-01T12:07:54;3.55;;;0.88;;
23866;SDS011;12114;53.404;-1.502;2022-08-01T12:10:21;2.67;;;0.80;;
23866;SDS011;12114;53.404;-1.502;2022-08-01T12:12:47;1.88;;;0.75;;
23866;SDS011;12114;53.404;-1.502;2022-08-01T12:15:16;2.13;;;0.80;;
23866;SDS011;12114;53.404;-1.502;2022-08-01T12:17:55;2.13;;;0.60;;
23866;SDS011;12114;53.404;-1.502;2022-08-01T12:20:22;2.70;;;0.70;;
23866;SDS011;12114;53.404;-1.502;2022-08-01T12:22:47;2.35;;;0.77;;
23866;SDS011;12114;53.404;-1.502;2022-08-01T12:25:14;2.53;;;0.60;;
23866;SDS011;12114;53.404;-1.502;2022-08-01T12:27:41;5.38;;;1.08;;
23866;SDS011;12114;53.404;-1.502;2022-08-01T12:30:08;2.47;;;0.73;;
23866;SDS011;12114;53.404;-1.502;2022-08-01T12:32:35;3.25;;;0.68;;
23866;SDS011;12114;53.404;-1.502;2022-08-01T12:35:08;2.25;;;0.60;;
23866;SDS011;12114;53.404;-1.502;2022-08-01T12:37:40;2.58;;;0.63;;
23866;SDS011;12114;53.404;-1.502;2022-08-01T12:40:25;3.55;;;0.80;;
23866;SDS011;12114;53.404;-1.502;2022-08-01T12:42:55;3.17;;;0.80;;
23866;SDS011;12114;53.404;-1.502;2022-08-01T12:45:23;2.22;;;0.70;;
23866;SDS011;12114;53.404;-1.502;2022-08-01T12:47:49;2.33;;;0.90;;
23866;SDS011;12114;53.404;-1.502;2022-08-01T12:50:16;5.38;;;1.08;;
23866;SDS011;12114;53.404;-1.502;2022-08-01T12:52:44;2.70;;;1.00;;
23866;SDS011;12114;53.404;-1.502;2022-08-01T12:55:11;2.03;;;0.60;;
23866;SDS011;12114;53.404;-1.502;2022-08-01T12:57:37;2.10;;;0.70;;
23866;SDS011;12114;53.404;-1.502;2022-08-01T13:02:32;5.38;;;1.25;;
23866;SDS011;12114;53.404;-1.502;2022-08-01T13:04:58;2.53;;;0.90;;
23866;SDS011;12114;53.404;-1.502;2022-08-01T13:07:37;3.05;;;0.90;;
23866;SDS011;12114;53.404;-1.502;2022-08-01T13:10:04;1.75;;;1.00;;
23866;SDS011;12114;53.404;-1.502;2022-08-01T13:12:30;2.45;;;1.00;;
23866;SDS011;12114;53.404;-1.502;2022-08-01T13:14:55;2.08;;;0.93;;
23866;SDS011;12114;53.404;-1.502;2022-08-01T13:17:30;5.13;;;1.00;;
23866;SDS011;12114;53.404;-1.502;2022-08-01T13:19:57;4.40;;;0.98;;
23866;SDS011;12114;53.404;-1.502;2022-08-01T13:22:31;2.15;;;0.70;;
23866;SDS011;12114;53.404;-1.502;2022-08-01T13:25:09;3.60;;;0.90;;
23866;SDS011;12114;53.404;-1.502;2022-08-01T13:27:34;3.35;;;1.02;;
23866;SDS011;12114;53.404;-1.502;2022-08-01T13:30:09;3.35;;;0.80;;
23866;SDS011;12114;53.404;-1.502;2022-08-01T13:32:35;3.45;;;0.75;;
23866;SDS011;12114;53.404;-1.502;2022-08-01T13:35:03;1.95;;;0.60;;
23866;SDS011;12114;53.404;-1.502;2022-08-01T13:37:29;3.55;;;0.82;;
23866;SDS011;12114;53.404;-1.502;2022-08-01T13:39:55;2.55;;;0.80;;
23866;SDS011;12114;53.404;-1.502;2022-08-01T13:42:20;1.23;;;0.50;;
23866;SDS011;12114;53.404;-1.502;2022-08-01T13:44:45;2.38;;;0.68;;
23866;SDS011;12114;53.404;-1.502;2022-08-01T13:47:11;1.48;;;0.60;;
23866;SDS011;12114;53.404;-1.502;2022-08-01T13:49:36;3.75;;;0.75;;
23866;SDS011;12114;53.404;-1.502;2022-08-01T13:52:02;2.08;;;0.77;;
23866;SDS011;12114;53.404;-1.502;2022-08-01T13:54:28;2.78;;;0.60;;
23866;SDS011;12114;53.404;-1.502;2022-08-01T13:56:54;1.40;;;0.60;;
23866;SDS011;12114;53.404;-1.502;2022-08-01T13:59:20;1.50;;;0.60;;
23866;SDS011;12114;53.404;-1.502;2022-08-01T14:01:46;1.55;;;0.60;;
23866;SDS011;12114;53.404;-1.502;2022-08-01T14:04:11;2.25;;;0.73;;
23866;SDS011;12114;53.404;-1.502;2022-08-01T14:06:37;1.70;;;0.70;;
23866;SDS011;12114;53.404;-1.502;2022-08-01T14:09:03;1.10;;;0.60;;
23866;SDS011;12114;53.404;-1.502;2022-08-01T14:11:28;1.23;;;0.57;;
23866;SDS011;12114;53.404;-1.502;2022-08-01T14:13:54;2.75;;;0.65;;
23866;SDS011;12114;53.404;-1.502;2022-08-01T14:16:20;2.92;;;0.90;;
23866;SDS011;12114;53.404;-1.502;2022-08-01T14:18:45;2.22;;;0.60;;
23866;SDS011;12114;53.404;-1.502;2022-08-01T14:21:10;1.55;;;0.70;;
23866;SDS011;12114;53.404;-1.502;2022-08-01T14:23:36;1.67;;;0.70;;
23866;SDS011;12114;53.404;-1.502;2022-08-01T14:26:01;2.13;;;0.68;;
23866;SDS011;12114;53.404;-1.502;2022-08-01T14:28:27;2.67;;;0.77;;
23866;SDS011;12114;53.404;-1.502;2022-08-01T14:30:53;1.75;;;0.90;;
23866;SDS011;12114;53.404;-1.502;2022-08-01T14:33:20;2.60;;;0.82;;
23866;SDS011;12114;53.404;-1.502;2022-08-01T14:35:46;2.25;;;0.90;;
23866;SDS011;12114;53.404;-1.502;2022-08-01T14:38:12;2.60;;;0.95;;
23866;SDS011;12114;53.404;-1.502;2022-08-01T14:40:37;1.73;;;0.80;;
23866;SDS011;12114;53.404;-1.502;2022-08-01T14:43:03;3.88;;;0.90;;
23866;SDS011;12114;53.404;-1.502;2022-08-01T14:45:28;3.92;;;1.30;;
23866;SDS011;12114;53.404;-1.502;2022-08-01T14:47:54;5.68;;;0.95;;
23866;SDS011;12114;53.404;-1.502;2022-08-01T14:50:19;1.65;;;0.80;;
23866;SDS011;12114;53.404;-1.502;2022-08-01T14:52:45;2.38;;;0.90;;
23866;SDS011;12114;53.404;-1.502;2022-08-01T14:55:11;2.08;;;0.65;;
23866;SDS011;12114;53.404;-1.502;2022-08-01T14:57:37;1.38;;;0.75;;
23866;SDS011;12114;53.404;-1.502;2022-08-01T15:00:04;3.83;;;0.80;;
23866;SDS011;12114;53.404;-1.502;2022-08-01T15:02:30;2.13;;;0.70;;
23866;SDS011;12114;53.404;-1.502;2022-08-01T15:04:55;3.38;;;0.70;;
23866;SDS011;12114;53.404;-1.502;2022-08-01T15:07:21;3.17;;;0.70;;